KAND/AND METAR and TAF weather

Enter ICAO airport designator
Station Type Date Time Source
KAND METAR 2018/01/23 00:56 UTC NOAA

KAND 230056Z AUTO 20004KT 10SM FEW030 BKN050 OVC080 12/12 A2997 RMK AO2 RAB01E56 SLP149 P0002 T01220117


Station Type Date Time Source
KAND Decoded METAR 2018/01/23 00:56 UTC NOAA

ANDERSON COUNTY AIRPORT, SC, United States (KAND) 34-30N 82-43W 239M
Jan 22, 2018 - 07:56 PM EST / 2018.01.23 0056 UTC
Wind: from the SSW (200 degrees) at 5 MPH (4 KT):0
Visibility: 10 mile(s):0
Sky conditions: overcast
Precipitation last hour: 0.02 inches
Temperature: 54.0 F (12.2 C)
Dew Point: 53.1 F (11.7 C)
Relative Humidity: 96%
Pressure (altimeter): 29.97 in. Hg (1014 hPa)
ob: KAND 230056Z AUTO 20004KT 10SM FEW030 BKN050 OVC080 12/12 A2997 RMK AO2 RAB01E56 SLP149 P0002 T01220117
cycle: 1

Station Type Date Time Source
KAND TAF 2018/01/23 00:00 UTC NOAA

TAF COR KAND 222358Z 2300/2324 14006KT P6SM -SHRA SCT025 OVC035
FM230200 16009KT 5SM SHRA BKN013 OVC025
TEMPO 2302/2306 18011G21KT 2SM +SHRA OVC004
FM230700 20012G20KT P6SM -SHRA BKN008 OVC011
FM231000 24011G19KT P6SM SCT022
FM231400 25013G22KT P6SM FEW250


Example: see airport list